Waterloo, Illinois
Current Conditions -  °F | °C
As of 10:53 AM on Friday 21 Nov 2014 (Local Time) from KCPS Reporting Station
Clear Clear  
Wind Chill: 29°   Ceiling: Unl
Heat Index: 37°   Visibility: 10mi
Dew Point: 19°   Wind: 12mph
Humidity: 48%   Direction: 130°SE
Pressure: 30.43"   Gusts: NA
Location:  38.33°N, 90.15°W
Report Text: KCPS 211653Z 13010KT 10SM CLR 03/M07 A3043 RMK AO2 SLP309 T00281072
Loading
Personal Weather Stations






























Interactive Weather Map New forecast layout! Learn more

10-Day Weather Forecast

Advertisements
Track Severe Weather on mobile